sensor_id;sensor_type;location;lat;lon;timestamp;temperature;humidity
3190;DHT22;1606;51.946;10.558;2024-02-04T00:01:34;11.60;99.90
3190;DHT22;1606;51.946;10.558;2024-02-04T00:04:03;11.70;99.90
3190;DHT22;1606;51.946;10.558;2024-02-04T00:06:31;11.90;99.90
3190;DHT22;1606;51.946;10.558;2024-02-04T00:08:59;11.90;99.90
3190;DHT22;1606;51.946;10.558;2024-02-04T00:11:27;11.70;99.90
3190;DHT22;1606;51.946;10.558;2024-02-04T00:13:55;11.30;99.90
3190;DHT22;1606;51.946;10.558;2024-02-04T00:16:23;11.00;99.90
3190;DHT22;1606;51.946;10.558;2024-02-04T00:18:52;11.20;99.90
3190;DHT22;1606;51.946;10.558;2024-02-04T00:21:20;11.30;99.90
3190;DHT22;1606;51.946;10.558;2024-02-04T00:23:48;11.20;99.90
3190;DHT22;1606;51.946;10.558;2024-02-04T00:26:16;11.30;99.90
3190;DHT22;1606;51.946;10.558;2024-02-04T00:28:43;11.10;99.90
3190;DHT22;1606;51.946;10.558;2024-02-04T00:31:11;11.10;99.90
3190;DHT22;1606;51.946;10.558;2024-02-04T00:33:39;11.20;99.90
3190;DHT22;1606;51.946;10.558;2024-02-04T00:36:09;11.20;99.90
3190;DHT22;1606;51.946;10.558;2024-02-04T00:38:36;11.20;99.90
3190;DHT22;1606;51.946;10.558;2024-02-04T00:41:05;11.00;99.90
3190;DHT22;1606;51.946;10.558;2024-02-04T00:43:32;11.10;99.90
3190;DHT22;1606;51.946;10.558;2024-02-04T00:46:00;11.10;99.90
3190;DHT22;1606;51.946;10.558;2024-02-04T00:48:28;10.90;99.90
3190;DHT22;1606;51.946;10.558;2024-02-04T00:50:56;11.00;99.90
3190;DHT22;1606;51.946;10.558;2024-02-04T00:53:25;11.20;99.90
3190;DHT22;1606;51.946;10.558;2024-02-04T00:56:00;11.20;99.90
3190;DHT22;1606;51.946;10.558;2024-02-04T00:58:28;11.10;99.90
3190;DHT22;1606;51.946;10.558;2024-02-04T01:00:56;11.10;99.90
3190;DHT22;1606;51.946;10.558;2024-02-04T01:03:24;11.30;99.90
3190;DHT22;1606;51.946;10.558;2024-02-04T01:05:52;11.40;99.90
3190;DHT22;1606;51.946;10.558;2024-02-04T01:08:20;11.30;99.90
3190;DHT22;1606;51.946;10.558;2024-02-04T01:10:49;11.20;99.90
3190;DHT22;1606;51.946;10.558;2024-02-04T01:13:18;11.30;99.90
3190;DHT22;1606;51.946;10.558;2024-02-04T01:15:46;11.30;99.90
3190;DHT22;1606;51.946;10.558;2024-02-04T01:18:13;11.50;99.90
3190;DHT22;1606;51.946;10.558;2024-02-04T01:20:41;11.30;99.90
3190;DHT22;1606;51.946;10.558;2024-02-04T01:23:09;11.30;99.90
3190;DHT22;1606;51.946;10.558;2024-02-04T01:25:37;11.50;99.90
3190;DHT22;1606;51.946;10.558;2024-02-04T01:28:10;11.20;99.90
3190;DHT22;1606;51.946;10.558;2024-02-04T01:30:38;11.40;99.90
3190;DHT22;1606;51.946;10.558;2024-02-04T01:33:06;11.60;99.90
3190;DHT22;1606;51.946;10.558;2024-02-04T01:35:34;11.50;99.90
3190;DHT22;1606;51.946;10.558;2024-02-04T01:38:02;11.30;99.90
3190;DHT22;1606;51.946;10.558;2024-02-04T01:40:30;11.30;99.90
3190;DHT22;1606;51.946;10.558;2024-02-04T01:42:58;11.30;99.90
3190;DHT22;1606;51.946;10.558;2024-02-04T01:45:27;11.50;99.90
3190;DHT22;1606;51.946;10.558;2024-02-04T01:47:55;11.50;99.90
3190;DHT22;1606;51.946;10.558;2024-02-04T01:50:26;11.40;99.90
3190;DHT22;1606;51.946;10.558;2024-02-04T01:52:54;11.40;99.90
3190;DHT22;1606;51.946;10.558;2024-02-04T01:55:22;11.20;99.90
3190;DHT22;1606;51.946;10.558;2024-02-04T01:57:50;11.30;99.90
3190;DHT22;1606;51.946;10.558;2024-02-04T02:00:21;11.40;99.90
3190;DHT22;1606;51.946;10.558;2024-02-04T02:02:51;11.30;99.90
3190;DHT22;1606;51.946;10.558;2024-02-04T02:05:20;11.40;99.90
3190;DHT22;1606;51.946;10.558;2024-02-04T02:07:50;11.40;99.90
3190;DHT22;1606;51.946;10.558;2024-02-04T02:10:18;11.30;99.90
3190;DHT22;1606;51.946;10.558;2024-02-04T02:12:50;11.20;99.90
3190;DHT22;1606;51.946;10.558;2024-02-04T02:15:21;11.20;99.90
3190;DHT22;1606;51.946;10.558;2024-02-04T02:17:56;11.50;99.90
3190;DHT22;1606;51.946;10.558;2024-02-04T02:20:30;11.60;99.90
3190;DHT22;1606;51.946;10.558;2024-02-04T02:23:06;11.50;99.90
3190;DHT22;1606;51.946;10.558;2024-02-04T02:25:37;11.50;99.90
3190;DHT22;1606;51.946;10.558;2024-02-04T02:28:07;11.50;99.90
3190;DHT22;1606;51.946;10.558;2024-02-04T02:30:35;11.50;99.90
3190;DHT22;1606;51.946;10.558;2024-02-04T02:33:04;11.40;99.90
3190;DHT22;1606;51.946;10.558;2024-02-04T02:35:33;11.40;99.90
3190;DHT22;1606;51.946;10.558;2024-02-04T02:38:07;11.30;99.90
3190;DHT22;1606;51.946;10.558;2024-02-04T02:40:42;11.20;99.90
3190;DHT22;1606;51.946;10.558;2024-02-04T02:43:12;11.40;99.90
3190;DHT22;1606;51.946;10.558;2024-02-04T02:45:42;11.50;99.90
3190;DHT22;1606;51.946;10.558;2024-02-04T02:48:11;11.40;99.90
3190;DHT22;1606;51.946;10.558;2024-02-04T02:50:39;11.50;99.90
3190;DHT22;1606;51.946;10.558;2024-02-04T02:53:07;11.50;99.90
3190;DHT22;1606;51.946;10.558;2024-02-04T02:55:35;11.50;99.90
3190;DHT22;1606;51.946;10.558;2024-02-04T02:58:04;11.60;99.90
3190;DHT22;1606;51.946;10.558;2024-02-04T03:00:32;11.90;99.90
3190;DHT22;1606;51.946;10.558;2024-02-04T03:03:00;11.60;99.90
3190;DHT22;1606;51.946;10.558;2024-02-04T03:05:28;11.80;99.90
3190;DHT22;1606;51.946;10.558;2024-02-04T03:07:56;11.40;99.90
3190;DHT22;1606;51.946;10.558;2024-02-04T03:10:24;11.60;99.90
3190;DHT22;1606;51.946;10.558;2024-02-04T03:12:51;11.10;99.90
3190;DHT22;1606;51.946;10.558;2024-02-04T03:15:21;11.20;99.90
3190;DHT22;1606;51.946;10.558;2024-02-04T03:17:49;11.30;99.90
3190;DHT22;1606;51.946;10.558;2024-02-04T03:20:17;11.50;99.90
3190;DHT22;1606;51.946;10.558;2024-02-04T03:22:45;11.70;99.90
3190;DHT22;1606;51.946;10.558;2024-02-04T03:25:13;11.90;99.90
3190;DHT22;1606;51.946;10.558;2024-02-04T03:27:41;11.50;99.90
3190;DHT22;1606;51.946;10.558;2024-02-04T03:30:10;11.60;99.90
3190;DHT22;1606;51.946;10.558;2024-02-04T03:32:39;11.70;99.90
3190;DHT22;1606;51.946;10.558;2024-02-04T03:35:07;11.80;99.90
3190;DHT22;1606;51.946;10.558;2024-02-04T03:37:35;11.60;99.90
3190;DHT22;1606;51.946;10.558;2024-02-04T03:40:04;11.50;99.90
3190;DHT22;1606;51.946;10.558;2024-02-04T03:42:32;11.40;99.90
3190;DHT22;1606;51.946;10.558;2024-02-04T03:45:00;11.60;99.90
3190;DHT22;1606;51.946;10.558;2024-02-04T03:47:29;11.40;99.90
3190;DHT22;1606;51.946;10.558;2024-02-04T03:50:01;11.30;99.90
3190;DHT22;1606;51.946;10.558;2024-02-04T03:52:29;11.00;99.90
3190;DHT22;1606;51.946;10.558;2024-02-04T03:54:57;11.20;99.90
3190;DHT22;1606;51.946;10.558;2024-02-04T03:57:26;11.40;99.90
3190;DHT22;1606;51.946;10.558;2024-02-04T03:59:54;11.30;99.90
3190;DHT22;1606;51.946;10.558;2024-02-04T04:02:22;11.40;99.90
3190;DHT22;1606;51.946;10.558;2024-02-04T04:04:50;11.60;99.90
3190;DHT22;1606;51.946;10.558;2024-02-04T04:07:19;11.70;99.90
3190;DHT22;1606;51.946;10.558;2024-02-04T04:09:47;11.70;99.90
3190;DHT22;1606;51.946;10.558;2024-02-04T04:12:15;11.80;99.90
3190;DHT22;1606;51.946;10.558;2024-02-04T04:14:43;11.70;99.90
3190;DHT22;1606;51.946;10.558;2024-02-04T04:17:11;11.60;99.90
3190;DHT22;1606;51.946;10.558;2024-02-04T04:19:39;11.60;99.90
3190;DHT22;1606;51.946;10.558;2024-02-04T04:22:07;11.60;99.90
3190;DHT22;1606;51.946;10.558;2024-02-04T04:24:37;11.60;99.90
3190;DHT22;1606;51.946;10.558;2024-02-04T04:27:05;11.70;99.90
3190;DHT22;1606;51.946;10.558;2024-02-04T04:29:33;11.80;99.90
3190;DHT22;1606;51.946;10.558;2024-02-04T04:32:01;11.90;99.90
3190;DHT22;1606;51.946;10.558;2024-02-04T04:34:29;11.90;99.90
3190;DHT22;1606;51.946;10.558;2024-02-04T04:36:57;11.90;99.90
3190;DHT22;1606;51.946;10.558;2024-02-04T04:39:25;11.90;99.90
3190;DHT22;1606;51.946;10.558;2024-02-04T04:41:54;11.90;99.90
3190;DHT22;1606;51.946;10.558;2024-02-04T04:44:22;11.80;99.90
3190;DHT22;1606;51.946;10.558;2024-02-04T04:46:50;11.80;99.90
3190;DHT22;1606;51.946;10.558;2024-02-04T04:49:17;11.70;99.90
3190;DHT22;1606;51.946;10.558;2024-02-04T04:51:47;11.60;99.90
3190;DHT22;1606;51.946;10.558;2024-02-04T04:54:15;11.70;99.90
3190;DHT22;1606;51.946;10.558;2024-02-04T04:56:46;11.70;99.90
3190;DHT22;1606;51.946;10.558;2024-02-04T04:59:16;11.60;99.90
3190;DHT22;1606;51.946;10.558;2024-02-04T05:01:47;11.70;99.90
3190;DHT22;1606;51.946;10.558;2024-02-04T05:04:16;11.90;99.90
3190;DHT22;1606;51.946;10.558;2024-02-04T05:06:45;11.70;99.90
3190;DHT22;1606;51.946;10.558;2024-02-04T05:09:15;11.50;99.90
3190;DHT22;1606;51.946;10.558;2024-02-04T05:11:45;11.40;99.90
3190;DHT22;1606;51.946;10.558;2024-02-04T05:14:13;11.30;99.90
3190;DHT22;1606;51.946;10.558;2024-02-04T05:16:46;11.30;99.90
3190;DHT22;1606;51.946;10.558;2024-02-04T05:19:14;11.10;99.90
3190;DHT22;1606;51.946;10.558;2024-02-04T05:21:42;11.30;99.90
3190;DHT22;1606;51.946;10.558;2024-02-04T05:24:13;11.40;99.90
3190;DHT22;1606;51.946;10.558;2024-02-04T05:26:42;11.40;99.90
3190;DHT22;1606;51.946;10.558;2024-02-04T05:29:11;11.20;99.90
3190;DHT22;1606;51.946;10.558;2024-02-04T05:31:45;11.20;99.90
3190;DHT22;1606;51.946;10.558;2024-02-04T05:34:19;11.40;99.90
3190;DHT22;1606;51.946;10.558;2024-02-04T05:36:47;11.10;99.90
3190;DHT22;1606;51.946;10.558;2024-02-04T05:39:16;11.20;99.90
3190;DHT22;1606;51.946;10.558;2024-02-04T05:41:46;11.10;99.90
3190;DHT22;1606;51.946;10.558;2024-02-04T05:44:15;11.10;99.90
3190;DHT22;1606;51.946;10.558;2024-02-04T05:46:44;11.10;99.90
3190;DHT22;1606;51.946;10.558;2024-02-04T05:49:12;11.20;99.90
3190;DHT22;1606;51.946;10.558;2024-02-04T05:51:41;11.20;99.90
3190;DHT22;1606;51.946;10.558;2024-02-04T05:54:09;11.30;99.90
3190;DHT22;1606;51.946;10.558;2024-02-04T05:56:38;11.30;99.90
3190;DHT22;1606;51.946;10.558;2024-02-04T05:59:06;11.40;99.90
3190;DHT22;1606;51.946;10.558;2024-02-04T06:01:34;11.50;99.90
3190;DHT22;1606;51.946;10.558;2024-02-04T06:04:11;11.40;99.90
3190;DHT22;1606;51.946;10.558;2024-02-04T06:06:39;11.40;99.90
3190;DHT22;1606;51.946;10.558;2024-02-04T06:09:07;11.60;99.90
3190;DHT22;1606;51.946;10.558;2024-02-04T06:11:37;11.50;99.90
3190;DHT22;1606;51.946;10.558;2024-02-04T06:14:07;11.60;99.90
3190;DHT22;1606;51.946;10.558;2024-02-04T06:16:40;11.50;99.90
3190;DHT22;1606;51.946;10.558;2024-02-04T06:19:14;11.80;99.90
3190;DHT22;1606;51.946;10.558;2024-02-04T06:21:42;11.70;99.90
3190;DHT22;1606;51.946;10.558;2024-02-04T06:24:12;11.70;99.90
3190;DHT22;1606;51.946;10.558;2024-02-04T06:26:43;11.40;99.90
3190;DHT22;1606;51.946;10.558;2024-02-04T06:29:11;11.50;99.90
3190;DHT22;1606;51.946;10.558;2024-02-04T06:31:39;11.70;99.90
3190;DHT22;1606;51.946;10.558;2024-02-04T06:34:07;12.00;99.90
3190;DHT22;1606;51.946;10.558;2024-02-04T06:36:42;11.80;99.90
3190;DHT22;1606;51.946;10.558;2024-02-04T06:39:11;11.80;99.90
3190;DHT22;1606;51.946;10.558;2024-02-04T06:41:39;11.80;99.90
3190;DHT22;1606;51.946;10.558;2024-02-04T06:44:06;11.50;99.90
3190;DHT22;1606;51.946;10.558;2024-02-04T06:46:35;11.60;99.90
3190;DHT22;1606;51.946;10.558;2024-02-04T06:49:03;11.50;99.90
3190;DHT22;1606;51.946;10.558;2024-02-04T06:51:31;11.80;99.90
3190;DHT22;1606;51.946;10.558;2024-02-04T06:54:00;11.80;99.90
3190;DHT22;1606;51.946;10.558;2024-02-04T06:56:32;11.80;99.90
3190;DHT22;1606;51.946;10.558;2024-02-04T06:59:03;11.60;99.90
3190;DHT22;1606;51.946;10.558;2024-02-04T07:01:32;11.60;99.90
3190;DHT22;1606;51.946;10.558;2024-02-04T07:04:00;11.70;99.90
3190;DHT22;1606;51.946;10.558;2024-02-04T07:06:29;11.70;99.90
3190;DHT22;1606;51.946;10.558;2024-02-04T07:08:57;11.80;99.90
3190;DHT22;1606;51.946;10.558;2024-02-04T07:11:29;12.00;99.90
3190;DHT22;1606;51.946;10.558;2024-02-04T07:13:58;11.80;99.90
3190;DHT22;1606;51.946;10.558;2024-02-04T07:16:27;11.60;99.90
3190;DHT22;1606;51.946;10.558;2024-02-04T07:18:55;11.50;99.90
3190;DHT22;1606;51.946;10.558;2024-02-04T07:21:23;11.40;99.90
3190;DHT22;1606;51.946;10.558;2024-02-04T07:23:51;11.40;99.90
3190;DHT22;1606;51.946;10.558;2024-02-04T07:26:20;11.50;99.90
3190;DHT22;1606;51.946;10.558;2024-02-04T07:28:54;11.60;99.90
3190;DHT22;1606;51.946;10.558;2024-02-04T07:31:22;11.40;99.90
3190;DHT22;1606;51.946;10.558;2024-02-04T07:33:50;11.30;99.90
3190;DHT22;1606;51.946;10.558;2024-02-04T07:36:18;11.40;99.90
3190;DHT22;1606;51.946;10.558;2024-02-04T07:38:48;11.40;99.90
3190;DHT22;1606;51.946;10.558;2024-02-04T07:41:15;11.50;99.90
3190;DHT22;1606;51.946;10.558;2024-02-04T07:43:43;11.60;99.90
3190;DHT22;1606;51.946;10.558;2024-02-04T07:46:16;11.70;99.90
3190;DHT22;1606;51.946;10.558;2024-02-04T07:48:43;11.70;99.90
3190;DHT22;1606;51.946;10.558;2024-02-04T07:51:11;11.80;99.90
3190;DHT22;1606;51.946;10.558;2024-02-04T07:53:42;11.80;99.90
3190;DHT22;1606;51.946;10.558;2024-02-04T07:56:10;11.70;99.90
3190;DHT22;1606;51.946;10.558;2024-02-04T07:58:38;11.70;99.90
3190;DHT22;1606;51.946;10.558;2024-02-04T08:01:10;11.80;99.90
3190;DHT22;1606;51.946;10.558;2024-02-04T08:03:39;11.70;99.90
3190;DHT22;1606;51.946;10.558;2024-02-04T08:06:08;11.80;99.90
3190;DHT22;1606;51.946;10.558;2024-02-04T08:08:36;11.80;99.90
3190;DHT22;1606;51.946;10.558;2024-02-04T08:11:04;11.90;99.90
3190;DHT22;1606;51.946;10.558;2024-02-04T08:13:32;11.90;99.90
3190;DHT22;1606;51.946;10.558;2024-02-04T08:16:00;11.80;99.90
3190;DHT22;1606;51.946;10.558;2024-02-04T08:18:28;11.60;99.90
3190;DHT22;1606;51.946;10.558;2024-02-04T08:20:57;11.70;99.90
3190;DHT22;1606;51.946;10.558;2024-02-04T08:23:25;11.80;99.90
3190;DHT22;1606;51.946;10.558;2024-02-04T08:25:52;11.80;99.90
3190;DHT22;1606;51.946;10.558;2024-02-04T08:28:20;11.70;99.90
3190;DHT22;1606;51.946;10.558;2024-02-04T08:30:50;11.90;99.90
3190;DHT22;1606;51.946;10.558;2024-02-04T08:33:18;11.90;99.90
3190;DHT22;1606;51.946;10.558;2024-02-04T08:35:46;11.80;99.90
3190;DHT22;1606;51.946;10.558;2024-02-04T08:38:15;11.80;99.90
3190;DHT22;1606;51.946;10.558;2024-02-04T08:40:43;11.90;99.90
3190;DHT22;1606;51.946;10.558;2024-02-04T08:43:11;11.90;99.90
3190;DHT22;1606;51.946;10.558;2024-02-04T08:45:38;12.00;99.90
3190;DHT22;1606;51.946;10.558;2024-02-04T08:48:07;11.60;99.90
3190;DHT22;1606;51.946;10.558;2024-02-04T08:50:34;11.70;99.90
3190;DHT22;1606;51.946;10.558;2024-02-04T08:53:02;11.70;99.90
3190;DHT22;1606;51.946;10.558;2024-02-04T08:55:32;11.50;99.90
3190;DHT22;1606;51.946;10.558;2024-02-04T08:58:00;11.40;99.90
3190;DHT22;1606;51.946;10.558;2024-02-04T09:00:28;11.50;99.90
3190;DHT22;1606;51.946;10.558;2024-02-04T09:02:55;11.50;99.90
3190;DHT22;1606;51.946;10.558;2024-02-04T09:05:23;11.30;99.90
3190;DHT22;1606;51.946;10.558;2024-02-04T09:07:51;11.60;99.90
3190;DHT22;1606;51.946;10.558;2024-02-04T09:10:21;11.40;99.90
3190;DHT22;1606;51.946;10.558;2024-02-04T09:12:51;11.20;99.90
3190;DHT22;1606;51.946;10.558;2024-02-04T09:15:19;11.10;99.90
3190;DHT22;1606;51.946;10.558;2024-02-04T09:17:47;11.00;99.90
3190;DHT22;1606;51.946;10.558;2024-02-04T09:20:15;11.20;99.90
3190;DHT22;1606;51.946;10.558;2024-02-04T09:22:43;11.00;99.90
3190;DHT22;1606;51.946;10.558;2024-02-04T09:25:11;11.00;99.90
3190;DHT22;1606;51.946;10.558;2024-02-04T09:27:39;10.80;99.90
3190;DHT22;1606;51.946;10.558;2024-02-04T09:30:10;10.80;99.90
3190;DHT22;1606;51.946;10.558;2024-02-04T09:32:38;10.70;99.90
3190;DHT22;1606;51.946;10.558;2024-02-04T09:35:07;10.70;99.90
3190;DHT22;1606;51.946;10.558;2024-02-04T09:37:36;10.80;99.90
3190;DHT22;1606;51.946;10.558;2024-02-04T09:40:04;10.90;99.90
3190;DHT22;1606;51.946;10.558;2024-02-04T09:42:32;11.00;99.90
3190;DHT22;1606;51.946;10.558;2024-02-04T09:45:01;11.00;99.90
3190;DHT22;1606;51.946;10.558;2024-02-04T09:47:32;10.90;99.90
3190;DHT22;1606;51.946;10.558;2024-02-04T09:50:02;11.00;99.90
3190;DHT22;1606;51.946;10.558;2024-02-04T09:52:33;11.00;99.90
3190;DHT22;1606;51.946;10.558;2024-02-04T09:55:02;10.70;99.90
3190;DHT22;1606;51.946;10.558;2024-02-04T09:57:34;10.80;99.90
3190;DHT22;1606;51.946;10.558;2024-02-04T10:00:03;10.80;99.90
3190;DHT22;1606;51.946;10.558;2024-02-04T10:02:34;11.00;99.90
3190;DHT22;1606;51.946;10.558;2024-02-04T10:05:02;11.30;99.90
3190;DHT22;1606;51.946;10.558;2024-02-04T10:07:30;11.60;99.90
3190;DHT22;1606;51.946;10.558;2024-02-04T10:09:59;11.50;99.90
3190;DHT22;1606;51.946;10.558;2024-02-04T10:12:27;11.30;99.90
3190;DHT22;1606;51.946;10.558;2024-02-04T10:14:55;11.20;99.90
3190;DHT22;1606;51.946;10.558;2024-02-04T10:17:23;11.20;99.90
3190;DHT22;1606;51.946;10.558;2024-02-04T10:19:52;11.30;99.90
3190;DHT22;1606;51.946;10.558;2024-02-04T10:22:20;11.30;99.90
3190;DHT22;1606;51.946;10.558;2024-02-04T10:24:48;11.20;99.90
3190;DHT22;1606;51.946;10.558;2024-02-04T10:27:16;11.40;99.90
3190;DHT22;1606;51.946;10.558;2024-02-04T10:29:57;11.30;99.90
3190;DHT22;1606;51.946;10.558;2024-02-04T10:32:26;11.20;99.90
3190;DHT22;1606;51.946;10.558;2024-02-04T10:34:57;11.40;99.90
3190;DHT22;1606;51.946;10.558;2024-02-04T10:37:25;11.10;99.90
3190;DHT22;1606;51.946;10.558;2024-02-04T10:39:56;11.20;99.90
3190;DHT22;1606;51.946;10.558;2024-02-04T10:42:26;11.20;99.90
3190;DHT22;1606;51.946;10.558;2024-02-04T10:44:55;11.50;99.90
3190;DHT22;1606;51.946;10.558;2024-02-04T10:47:25;11.70;99.90
3190;DHT22;1606;51.946;10.558;2024-02-04T10:50:02;11.40;99.90
3190;DHT22;1606;51.946;10.558;2024-02-04T10:52:35;11.30;99.90
3190;DHT22;1606;51.946;10.558;2024-02-04T10:55:06;11.30;99.90
3190;DHT22;1606;51.946;10.558;2024-02-04T10:57:35;11.30;99.90
3190;DHT22;1606;51.946;10.558;2024-02-04T11:00:04;11.30;99.90
3190;DHT22;1606;51.946;10.558;2024-02-04T11:02:35;11.40;99.90
3190;DHT22;1606;51.946;10.558;2024-02-04T11:05:07;11.30;99.90
3190;DHT22;1606;51.946;10.558;2024-02-04T11:07:36;11.40;99.90
3190;DHT22;1606;51.946;10.558;2024-02-04T11:10:04;11.40;99.90
3190;DHT22;1606;51.946;10.558;2024-02-04T11:12:33;11.50;99.90
3190;DHT22;1606;51.946;10.558;2024-02-04T11:15:05;11.80;99.90
3190;DHT22;1606;51.946;10.558;2024-02-04T11:21:09;11.80;99.90
3190;DHT22;1606;51.946;10.558;2024-02-04T11:23:50;11.60;99.90
3190;DHT22;1606;51.946;10.558;2024-02-04T11:26:23;11.70;99.90
3190;DHT22;1606;51.946;10.558;2024-02-04T11:28:52;11.50;99.90
3190;DHT22;1606;51.946;10.558;2024-02-04T11:31:20;11.30;99.90
3190;DHT22;1606;51.946;10.558;2024-02-04T11:33:50;11.30;99.90
3190;DHT22;1606;51.946;10.558;2024-02-04T11:36:24;11.40;99.90
3190;DHT22;1606;51.946;10.558;2024-02-04T11:38:53;11.40;99.90
3190;DHT22;1606;51.946;10.558;2024-02-04T11:41:24;11.30;99.90
3190;DHT22;1606;51.946;10.558;2024-02-04T11:43:56;11.30;99.90
3190;DHT22;1606;51.946;10.558;2024-02-04T11:46:28;11.50;99.90
3190;DHT22;1606;51.946;10.558;2024-02-04T11:49:00;11.40;99.90
3190;DHT22;1606;51.946;10.558;2024-02-04T11:51:30;11.50;99.90
3190;DHT22;1606;51.946;10.558;2024-02-04T11:53:58;11.30;99.90
3190;DHT22;1606;51.946;10.558;2024-02-04T11:56:28;11.20;99.90
3190;DHT22;1606;51.946;10.558;2024-02-04T11:58:56;10.90;99.90
3190;DHT22;1606;51.946;10.558;2024-02-04T12:01:24;11.00;99.90
3190;DHT22;1606;51.946;10.558;2024-02-04T12:03:54;11.20;99.90
3190;DHT22;1606;51.946;10.558;2024-02-04T12:06:22;11.20;99.90
3190;DHT22;1606;51.946;10.558;2024-02-04T12:08:52;11.30;99.90
3190;DHT22;1606;51.946;10.558;2024-02-04T12:11:20;11.10;99.90
3190;DHT22;1606;51.946;10.558;2024-02-04T12:13:50;11.20;99.90
3190;DHT22;1606;51.946;10.558;2024-02-04T12:16:18;11.30;99.90
3190;DHT22;1606;51.946;10.558;2024-02-04T12:18:50;11.00;99.90
3190;DHT22;1606;51.946;10.558;2024-02-04T12:21:18;11.10;99.90
3190;DHT22;1606;51.946;10.558;2024-02-04T12:23:46;11.20;99.90
3190;DHT22;1606;51.946;10.558;2024-02-04T12:26:16;11.10;99.90
3190;DHT22;1606;51.946;10.558;2024-02-04T12:28:44;11.20;99.90
3190;DHT22;1606;51.946;10.558;2024-02-04T12:31:17;11.10;99.90
3190;DHT22;1606;51.946;10.558;2024-02-04T12:33:52;11.00;99.90
3190;DHT22;1606;51.946;10.558;2024-02-04T12:36:21;11.30;99.90
3190;DHT22;1606;51.946;10.558;2024-02-04T12:38:53;11.40;99.90
3190;DHT22;1606;51.946;10.558;2024-02-04T12:41:23;11.50;99.90
3190;DHT22;1606;51.946;10.558;2024-02-04T12:43:52;11.30;99.90
3190;DHT22;1606;51.946;10.558;2024-02-04T12:46:20;11.20;99.90
3190;DHT22;1606;51.946;10.558;2024-02-04T12:48:52;11.30;99.90
3190;DHT22;1606;51.946;10.558;2024-02-04T12:51:24;11.40;99.90
3190;DHT22;1606;51.946;10.558;2024-02-04T12:54:05;11.40;99.90
3190;DHT22;1606;51.946;10.558;2024-02-04T12:56:42;11.40;99.90
3190;DHT22;1606;51.946;10.558;2024-02-04T12:59:10;11.60;99.90
3190;DHT22;1606;51.946;10.558;2024-02-04T13:01:38;11.50;99.90
3190;DHT22;1606;51.946;10.558;2024-02-04T13:04:06;11.50;99.90
3190;DHT22;1606;51.946;10.558;2024-02-04T13:06:38;11.40;99.90
3190;DHT22;1606;51.946;10.558;2024-02-04T13:09:06;11.30;99.90
3190;DHT22;1606;51.946;10.558;2024-02-04T13:11:35;11.40;99.90
3190;DHT22;1606;51.946;10.558;2024-02-04T13:14:04;11.60;99.90
3190;DHT22;1606;51.946;10.558;2024-02-04T13:16:33;11.60;99.90
3190;DHT22;1606;51.946;10.558;2024-02-04T13:19:02;11.30;99.90
3190;DHT22;1606;51.946;10.558;2024-02-04T13:21:30;11.40;99.90
3190;DHT22;1606;51.946;10.558;2024-02-04T13:23:58;11.30;99.90
3190;DHT22;1606;51.946;10.558;2024-02-04T13:26:26;11.20;99.90
3190;DHT22;1606;51.946;10.558;2024-02-04T13:28:54;11.10;99.90
3190;DHT22;1606;51.946;10.558;2024-02-04T13:31:23;11.10;99.90
3190;DHT22;1606;51.946;10.558;2024-02-04T13:33:51;10.90;99.90
3190;DHT22;1606;51.946;10.558;2024-02-04T13:36:19;11.10;99.90
3190;DHT22;1606;51.946;10.558;2024-02-04T13:38:47;11.20;99.90
3190;DHT22;1606;51.946;10.558;2024-02-04T13:41:15;11.30;99.90
3190;DHT22;1606;51.946;10.558;2024-02-04T13:43:42;11.10;99.90
3190;DHT22;1606;51.946;10.558;2024-02-04T13:46:11;11.30;99.90
3190;DHT22;1606;51.946;10.558;2024-02-04T13:48:40;11.30;99.90
3190;DHT22;1606;51.946;10.558;2024-02-04T13:51:08;11.20;99.90
3190;DHT22;1606;51.946;10.558;2024-02-04T13:53:36;11.10;99.90
3190;DHT22;1606;51.946;10.558;2024-02-04T13:56:04;11.00;99.90
3190;DHT22;1606;51.946;10.558;2024-02-04T13:58:32;11.20;99.90
3190;DHT22;1606;51.946;10.558;2024-02-04T14:01:02;11.30;99.90
3190;DHT22;1606;51.946;10.558;2024-02-04T14:03:31;11.30;99.90
3190;DHT22;1606;51.946;10.558;2024-02-04T14:06:00;11.50;99.90
3190;DHT22;1606;51.946;10.558;2024-02-04T14:08:30;11.60;99.90
3190;DHT22;1606;51.946;10.558;2024-02-04T14:10:58;11.50;99.90
3190;DHT22;1606;51.946;10.558;2024-02-04T14:13:26;11.40;99.90
3190;DHT22;1606;51.946;10.558;2024-02-04T14:15:53;11.40;99.90
3190;DHT22;1606;51.946;10.558;2024-02-04T14:18:21;11.60;99.90
3190;DHT22;1606;51.946;10.558;2024-02-04T14:20:49;11.70;99.90
3190;DHT22;1606;51.946;10.558;2024-02-04T14:23:18;11.60;99.90
3190;DHT22;1606;51.946;10.558;2024-02-04T14:25:46;11.40;99.90
3190;DHT22;1606;51.946;10.558;2024-02-04T14:28:14;11.40;99.90
3190;DHT22;1606;51.946;10.558;2024-02-04T14:30:43;11.40;99.90
3190;DHT22;1606;51.946;10.558;2024-02-04T14:33:11;11.40;99.90
3190;DHT22;1606;51.946;10.558;2024-02-04T14:35:38;11.50;99.90
3190;DHT22;1606;51.946;10.558;2024-02-04T14:38:06;11.40;99.90
3190;DHT22;1606;51.946;10.558;2024-02-04T14:40:36;11.50;99.90
3190;DHT22;1606;51.946;10.558;2024-02-04T14:43:03;11.60;99.90
3190;DHT22;1606;51.946;10.558;2024-02-04T14:45:31;11.70;99.90
3190;DHT22;1606;51.946;10.558;2024-02-04T14:47:59;11.70;99.90
3190;DHT22;1606;51.946;10.558;2024-02-04T14:50:28;11.20;99.90
3190;DHT22;1606;51.946;10.558;2024-02-04T14:52:56;11.40;99.90
3190;DHT22;1606;51.946;10.558;2024-02-04T14:55:24;11.20;99.90
3190;DHT22;1606;51.946;10.558;2024-02-04T14:57:53;11.50;99.90
3190;DHT22;1606;51.946;10.558;2024-02-04T15:00:21;11.40;99.90
3190;DHT22;1606;51.946;10.558;2024-02-04T15:02:51;11.40;99.90
3190;DHT22;1606;51.946;10.558;2024-02-04T15:05:19;11.50;99.90
3190;DHT22;1606;51.946;10.558;2024-02-04T15:07:48;11.50;99.90
3190;DHT22;1606;51.946;10.558;2024-02-04T15:10:17;11.40;99.90
3190;DHT22;1606;51.946;10.558;2024-02-04T15:12:46;11.40;99.90
3190;DHT22;1606;51.946;10.558;2024-02-04T15:15:17;11.60;99.90
3190;DHT22;1606;51.946;10.558;2024-02-04T15:17:45;11.80;99.90
3190;DHT22;1606;51.946;10.558;2024-02-04T15:20:14;11.50;99.90
3190;DHT22;1606;51.946;10.558;2024-02-04T15:22:45;11.30;99.90
3190;DHT22;1606;51.946;10.558;2024-02-04T15:25:14;11.40;99.90
3190;DHT22;1606;51.946;10.558;2024-02-04T15:27:45;11.50;99.90
3190;DHT22;1606;51.946;10.558;2024-02-04T15:30:13;11.40;99.90
3190;DHT22;1606;51.946;10.558;2024-02-04T15:32:44;11.50;99.90
3190;DHT22;1606;51.946;10.558;2024-02-04T15:35:13;11.40;99.90
3190;DHT22;1606;51.946;10.558;2024-02-04T15:37:41;11.40;99.90
3190;DHT22;1606;51.946;10.558;2024-02-04T15:40:10;11.50;99.90
3190;DHT22;1606;51.946;10.558;2024-02-04T15:42:39;11.40;99.90
3190;DHT22;1606;51.946;10.558;2024-02-04T15:45:07;11.70;99.90
3190;DHT22;1606;51.946;10.558;2024-02-04T15:47:37;11.70;99.90
3190;DHT22;1606;51.946;10.558;2024-02-04T15:50:10;11.60;99.90
3190;DHT22;1606;51.946;10.558;2024-02-04T15:52:38;11.60;99.90
3190;DHT22;1606;51.946;10.558;2024-02-04T15:55:08;11.50;99.90
3190;DHT22;1606;51.946;10.558;2024-02-04T15:57:36;11.30;99.90
3190;DHT22;1606;51.946;10.558;2024-02-04T16:00:05;11.40;99.90